createdAt,value
2019-02-17T00:02:11.856Z,4.78
2019-02-17T00:04:42.299Z,5.15
2019-02-17T00:07:12.544Z,4.90
2019-02-17T00:09:42.875Z,4.83
2019-02-17T00:12:13.421Z,4.92
2019-02-17T00:14:43.569Z,5.00
2019-02-17T00:17:14.126Z,3.72
2019-02-17T00:19:44.478Z,4.17
2019-02-17T00:22:14.756Z,4.25
2019-02-17T00:24:45.018Z,5.58
2019-02-17T00:27:15.318Z,3.33
2019-02-17T00:29:45.960Z,4.20
2019-02-17T00:32:16.943Z,4.12
2019-02-17T00:34:47.453Z,4.10
2019-02-17T00:37:18.050Z,4.60
2019-02-17T00:39:48.430Z,4.10
2019-02-17T00:42:18.580Z,4.33
2019-02-17T00:44:49.022Z,3.80
2019-02-17T00:47:19.573Z,4.42
2019-02-17T00:49:49.717Z,3.45
2019-02-17T00:52:19.956Z,3.33
2019-02-17T00:54:50.357Z,4.05
2019-02-17T00:57:20.771Z,4.37
2019-02-17T00:59:51.271Z,4.83
2019-02-17T01:02:21.653Z,4.20
2019-02-17T01:04:51.795Z,4.37
2019-02-17T01:07:22.217Z,1.85
2019-02-17T01:09:52.687Z,4.10
2019-02-17T01:12:23.085Z,2.42
2019-02-17T01:14:53.406Z,3.25
2019-02-17T01:17:23.758Z,3.92
2019-02-17T01:19:54.098Z,3.92
2019-02-17T01:22:24.432Z,3.40
2019-02-17T01:24:54.559Z,3.12
2019-02-17T01:27:25.059Z,3.00
2019-02-17T01:29:55.401Z,3.42
2019-02-17T01:32:25.587Z,3.92
2019-02-17T01:34:55.944Z,3.40
2019-02-17T01:37:26.223Z,3.92
2019-02-17T01:39:56.769Z,4.12
2019-02-17T01:42:27.095Z,3.70
2019-02-17T01:44:57.707Z,4.20
2019-02-17T01:47:28.122Z,3.30
2019-02-17T01:49:58.419Z,3.25
2019-02-17T01:52:28.769Z,4.10
2019-02-17T01:54:59.109Z,3.65
2019-02-17T01:57:29.316Z,2.45
2019-02-17T01:59:59.913Z,3.37
2019-02-17T02:02:31.126Z,3.30
2019-02-17T02:05:01.400Z,3.95
2019-02-17T02:07:32.153Z,2.15
2019-02-17T02:10:02.887Z,3.47
2019-02-17T02:12:33.178Z,2.08
2019-02-17T02:15:04.841Z,4.28
2019-02-17T02:17:35.050Z,3.45
2019-02-17T02:20:06.612Z,3.65
2019-02-17T02:22:36.895Z,3.47
2019-02-17T02:25:07.125Z,3.45
2019-02-17T02:27:37.625Z,3.50
2019-02-17T02:30:09.302Z,3.60
2019-02-17T02:32:39.608Z,3.62
2019-02-17T02:35:09.808Z,3.90
2019-02-17T02:37:40.117Z,3.33
2019-02-17T02:40:10.522Z,2.87
2019-02-17T02:42:40.805Z,3.60
2019-02-17T02:45:11.881Z,3.33
2019-02-17T02:47:41.969Z,3.52
2019-02-17T02:50:12.439Z,2.95
2019-02-17T02:52:42.893Z,3.77
2019-02-17T02:55:13.515Z,2.80
2019-02-17T02:57:43.970Z,4.10
2019-02-17T03:00:14.580Z,3.55
2019-02-17T03:02:44.773Z,4.17
2019-02-17T03:05:15.171Z,4.05
2019-02-17T03:07:45.309Z,3.00
2019-02-17T03:10:16.215Z,3.80
2019-02-17T03:12:46.512Z,4.17
2019-02-17T03:15:16.851Z,3.92
2019-02-17T03:17:47.374Z,4.42
2019-02-17T03:20:17.575Z,4.08
2019-02-17T03:22:47.816Z,4.17
2019-02-17T03:25:18.238Z,4.53
2019-02-17T03:27:48.489Z,4.10
2019-02-17T03:30:18.862Z,1.85
2019-02-17T03:32:49.097Z,2.90
2019-02-17T03:35:19.567Z,3.10
2019-02-17T03:37:49.865Z,3.98
2019-02-17T03:40:19.728Z,3.50
2019-02-17T03:42:50.125Z,4.10
2019-02-17T03:45:21.119Z,3.42
2019-02-17T03:47:51.753Z,4.33
2019-02-17T03:50:22.106Z,4.30
2019-02-17T03:52:52.275Z,4.22
2019-02-17T03:55:22.701Z,4.40
2019-02-17T03:57:52.997Z,3.20
2019-02-17T04:00:23.852Z,4.03
2019-02-17T04:02:54.249Z,3.47
2019-02-17T04:05:24.825Z,3.15
2019-02-17T04:07:55.303Z,4.20
2019-02-17T04:10:25.693Z,4.58
2019-02-17T04:12:56.070Z,4.72
2019-02-17T04:15:26.450Z,5.10
2019-02-17T04:17:57.114Z,4.92
2019-02-17T04:20:27.266Z,5.12
2019-02-17T04:22:58.078Z,5.22
2019-02-17T04:25:28.297Z,5.53
2019-02-17T04:27:58.738Z,4.12
2019-02-17T04:30:29.830Z,5.67
2019-02-17T04:33:00.699Z,5.53
2019-02-17T04:35:31.202Z,4.53
2019-02-17T04:38:01.621Z,3.10
2019-02-17T04:40:31.889Z,4.65
2019-02-17T04:43:02.125Z,5.70
2019-02-17T04:45:32.433Z,5.97
2019-02-17T04:48:02.764Z,5.75
2019-02-17T04:50:33.165Z,4.30
2019-02-17T04:53:05.435Z,5.87
2019-02-17T04:58:07.391Z,5.95
2019-02-17T05:00:40.520Z,4.83
2019-02-17T05:03:12.740Z,4.80
2019-02-17T05:05:50.529Z,5.47
2019-02-17T05:08:21.170Z,4.97
2019-02-17T05:10:51.359Z,4.45
2019-02-17T05:13:21.935Z,6.70
2019-02-17T05:15:52.179Z,4.92
2019-02-17T05:18:22.485Z,7.00
2019-02-17T05:20:52.752Z,5.08
2019-02-17T05:23:23.000Z,6.90
2019-02-17T05:25:53.586Z,6.03
2019-02-17T05:28:24.685Z,7.95
2019-02-17T05:30:54.976Z,6.60
2019-02-17T05:33:25.956Z,6.15
2019-02-17T05:35:56.241Z,7.12
2019-02-17T05:38:26.838Z,5.78
2019-02-17T05:40:57.228Z,7.50
2019-02-17T05:49:05.768Z,6.58
2019-02-17T05:51:36.737Z,5.20
2019-02-17T05:54:07.008Z,7.08
2019-02-17T05:56:37.319Z,7.00
2019-02-17T05:59:07.438Z,7.50
2019-02-17T06:01:38.127Z,6.60
2019-02-17T06:04:08.549Z,9.38
2019-02-17T06:06:38.974Z,8.50
2019-02-17T06:09:09.220Z,8.15
2019-02-17T06:11:39.610Z,8.90
2019-02-17T06:14:10.534Z,7.50
2019-02-17T06:16:41.039Z,8.28
2019-02-17T06:19:11.441Z,8.98
2019-02-17T06:21:42.008Z,7.90
2019-02-17T06:24:12.577Z,8.10
2019-02-17T06:26:43.069Z,7.37
2019-02-17T06:29:13.291Z,8.95
2019-02-17T06:31:43.687Z,8.10
2019-02-17T06:34:14.107Z,9.48
2019-02-17T06:36:44.710Z,6.15
2019-02-17T06:39:15.732Z,9.55
2019-02-17T06:41:46.637Z,8.23
2019-02-17T06:44:17.064Z,8.15
2019-02-17T06:46:51.550Z,8.63
2019-02-17T06:49:21.932Z,9.90
2019-02-17T06:51:52.277Z,6.60
2019-02-17T06:54:22.920Z,7.22
2019-02-17T06:57:08.360Z,7.87
2019-02-17T06:59:38.860Z,8.75
2019-02-17T07:02:08.962Z,6.75
2019-02-17T07:04:58.821Z,9.23
2019-02-17T07:07:29.311Z,7.17
2019-02-17T07:09:59.756Z,7.92
2019-02-17T07:12:30.777Z,9.05
2019-02-17T07:15:01.372Z,8.10
2019-02-17T07:17:31.740Z,5.42
2019-02-17T07:20:02.063Z,8.55
2019-02-17T07:22:32.664Z,8.20
2019-02-17T07:25:03.397Z,8.95
2019-02-17T07:27:33.745Z,6.78
2019-02-17T07:30:04.434Z,6.00
2019-02-17T07:32:35.249Z,7.95
2019-02-17T07:35:05.732Z,7.12
2019-02-17T07:37:36.132Z,8.65
2019-02-17T07:40:06.845Z,6.75
2019-02-17T07:42:37.373Z,8.55
2019-02-17T07:45:07.800Z,7.95
2019-02-17T07:47:38.179Z,8.53
2019-02-17T07:50:08.823Z,8.73
2019-02-17T07:52:39.423Z,7.53
2019-02-17T07:55:09.722Z,8.98
2019-02-17T07:57:40.213Z,6.45
2019-02-17T08:00:10.579Z,8.20
2019-02-17T08:02:41.063Z,7.92
2019-02-17T08:05:11.720Z,7.72
2019-02-17T08:07:43.210Z,7.12
2019-02-17T08:10:13.693Z,5.97
2019-02-17T08:12:43.976Z,8.65
2019-02-17T08:15:14.781Z,7.25
2019-02-17T08:17:45.370Z,9.80
2019-02-17T08:20:15.851Z,4.95
2019-02-17T08:22:46.825Z,4.33
2019-02-17T08:25:21.836Z,3.83
2019-02-17T08:27:52.584Z,7.42
2019-02-17T08:30:23.172Z,4.78
2019-02-17T08:32:54.034Z,7.22
2019-02-17T08:35:24.262Z,7.10
2019-02-17T08:37:54.621Z,5.80
2019-02-17T08:40:25.755Z,4.67
2019-02-17T08:42:56.535Z,3.47
2019-02-17T08:45:27.700Z,5.40
2019-02-17T08:47:58.381Z,4.72
2019-02-17T08:50:28.676Z,6.42
2019-02-17T08:52:58.922Z,4.62
2019-02-17T08:55:29.352Z,5.40
2019-02-17T08:57:59.412Z,3.60
2019-02-17T09:00:29.870Z,5.12
2019-02-17T09:03:00.198Z,5.95
2019-02-17T09:05:30.528Z,3.75
2019-02-17T09:08:00.837Z,5.87
2019-02-17T09:10:31.722Z,4.22
2019-02-17T09:13:02.239Z,3.85
2019-02-17T09:15:32.785Z,4.10
2019-02-17T09:18:03.194Z,5.15
2019-02-17T09:20:33.822Z,4.58
2019-02-17T09:23:04.278Z,3.92
2019-02-17T09:25:34.988Z,4.00
2019-02-17T09:28:05.480Z,3.85
2019-02-17T09:30:36.209Z,4.95
2019-02-17T09:33:06.935Z,4.30
2019-02-17T09:35:38.914Z,3.15
2019-02-17T09:38:09.361Z,4.20
2019-02-17T09:40:39.670Z,2.75
2019-02-17T09:43:10.084Z,3.80
2019-02-17T09:45:40.177Z,4.40
2019-02-17T09:48:10.469Z,4.08
2019-02-17T09:50:41.386Z,4.03
2019-02-17T09:53:11.777Z,3.40
2019-02-17T09:55:42.931Z,4.90
2019-02-17T09:58:13.707Z,3.87
2019-02-17T10:00:44.224Z,3.52
2019-02-17T10:03:14.576Z,3.70
2019-02-17T10:05:44.974Z,3.35
2019-02-17T10:08:15.407Z,7.10
2019-02-17T10:10:45.711Z,3.62
2019-02-17T10:13:16.434Z,3.42
2019-02-17T10:15:52.715Z,3.58
2019-02-17T10:18:23.104Z,3.17
2019-02-17T10:20:53.658Z,3.10
2019-02-17T10:23:23.985Z,3.98
2019-02-17T10:25:56.480Z,2.12
2019-02-17T10:28:26.938Z,3.77
2019-02-17T10:30:57.290Z,3.45
2019-02-17T10:33:27.727Z,2.85
2019-02-17T10:35:58.852Z,3.58
2019-02-17T10:38:29.607Z,3.10
2019-02-17T10:41:00.852Z,2.58
2019-02-17T10:43:31.781Z,3.52
2019-02-17T10:46:03.263Z,3.00
2019-02-17T10:48:33.974Z,2.72
2019-02-17T10:54:23.137Z,2.08
2019-02-17T10:56:53.954Z,1.65
2019-02-17T10:59:24.395Z,1.30
2019-02-17T11:01:55.832Z,1.50
2019-02-17T11:04:26.325Z,2.00
2019-02-17T11:06:56.711Z,1.55
2019-02-17T11:09:27.011Z,1.70
2019-02-17T11:11:57.754Z,1.90
2019-02-17T11:14:28.183Z,2.00
2019-02-17T11:16:58.527Z,1.12
2019-02-17T11:19:28.973Z,1.62
2019-02-17T11:21:59.974Z,1.65
2019-02-17T11:24:30.426Z,1.32
2019-02-17T11:27:00.760Z,1.67
2019-02-17T11:29:31.653Z,1.87
2019-02-17T11:32:02.215Z,1.70
2019-02-17T11:34:33.331Z,1.37
2019-02-17T11:37:04.084Z,2.00
2019-02-17T11:39:34.682Z,2.50
2019-02-17T11:42:05.222Z,1.70
2019-02-17T11:44:35.747Z,1.90
2019-02-17T11:47:07.462Z,2.45
2019-02-17T11:49:38.040Z,1.47
2019-02-17T11:52:08.256Z,2.87
2019-02-17T11:54:39.142Z,1.95
2019-02-17T11:57:09.648Z,1.50
2019-02-17T11:59:40.097Z,1.65
2019-02-17T12:02:10.642Z,1.17
2019-02-17T12:04:41.258Z,1.98
2019-02-17T12:07:12.751Z,1.77
2019-02-17T12:09:43.165Z,1.65
2019-02-17T12:12:13.821Z,2.45
2019-02-17T12:14:44.661Z,2.30
2019-02-17T12:17:15.428Z,1.60
2019-02-17T12:19:47.100Z,2.27
2019-02-17T12:22:21.772Z,1.57
2019-02-17T12:25:04.837Z,1.40
2019-02-17T12:27:52.147Z,2.20
2019-02-17T12:30:24.694Z,1.42
2019-02-17T12:32:55.126Z,2.15
2019-02-17T12:35:25.662Z,1.82
2019-02-17T12:37:56.966Z,1.55
2019-02-17T12:40:27.915Z,1.75
2019-02-17T12:42:58.209Z,1.00
2019-02-17T12:45:29.551Z,1.40
2019-02-17T12:48:00.204Z,2.47
2019-02-17T12:50:30.711Z,1.72
2019-02-17T12:53:01.296Z,2.35
2019-02-17T12:55:31.729Z,1.10
2019-02-17T12:58:02.360Z,1.60
2019-02-17T13:00:33.517Z,0.80
2019-02-17T13:03:03.746Z,1.12
2019-02-17T13:05:34.091Z,1.25
2019-02-17T13:08:04.439Z,1.80
2019-02-17T13:10:36.033Z,0.90
2019-02-17T13:13:06.553Z,0.70
2019-02-17T13:15:36.995Z,1.85
2019-02-17T13:18:07.628Z,1.20
2019-02-17T13:20:38.046Z,1.87
2019-02-17T13:23:08.341Z,1.27
2019-02-17T13:25:41.637Z,1.40
2019-02-17T13:28:11.862Z,1.42
2019-02-17T13:30:42.161Z,1.55
2019-02-17T13:33:12.689Z,1.70
2019-02-17T13:35:43.134Z,1.20
2019-02-17T13:38:13.488Z,1.05
2019-02-17T13:40:44.069Z,1.65
2019-02-17T13:43:14.580Z,2.35
2019-02-17T13:45:45.476Z,1.65
2019-02-17T13:48:16.142Z,1.17
2019-02-17T13:50:47.443Z,1.12
2019-02-17T13:53:17.582Z,1.95
2019-02-17T13:55:48.135Z,1.92
2019-02-17T13:58:18.552Z,3.17
2019-02-17T14:00:48.575Z,0.90
2019-02-17T14:03:19.002Z,1.65
2019-02-17T14:05:49.771Z,1.30
2019-02-17T14:08:20.402Z,1.52
2019-02-17T14:10:50.926Z,1.37
2019-02-17T14:13:21.303Z,1.47
2019-02-17T14:15:51.464Z,1.77
2019-02-17T14:18:21.978Z,1.57
2019-02-17T14:20:52.717Z,2.33
2019-02-17T14:23:23.456Z,1.50
2019-02-17T14:25:53.544Z,1.40
2019-02-17T14:28:23.883Z,1.05
2019-02-17T14:30:54.693Z,1.92
2019-02-17T14:33:24.866Z,1.70
2019-02-17T14:35:55.180Z,0.88
2019-02-17T14:38:25.302Z,1.20
2019-02-17T14:40:55.687Z,1.10
2019-02-17T14:43:26.187Z,1.00
2019-02-17T14:45:56.350Z,0.57
2019-02-17T14:48:26.938Z,0.70
2019-02-17T14:50:57.387Z,1.47
2019-02-17T14:53:27.597Z,0.90
2019-02-17T14:55:58.549Z,1.07
2019-02-17T14:58:28.868Z,1.30
2019-02-17T15:00:59.422Z,1.10
2019-02-17T15:03:29.924Z,1.47
2019-02-17T15:06:00.484Z,1.22
2019-02-17T15:08:30.838Z,1.60
2019-02-17T15:11:01.127Z,1.30
2019-02-17T15:13:31.763Z,1.20
2019-02-17T15:16:02.270Z,0.40
2019-02-17T15:18:33.157Z,1.62
2019-02-17T15:21:03.413Z,1.12
2019-02-17T15:23:33.987Z,1.25
2019-02-17T15:26:04.750Z,1.60
2019-02-17T15:28:35.064Z,1.42
2019-02-17T15:31:05.603Z,0.95
2019-02-17T15:33:35.973Z,0.98
2019-02-17T15:36:06.275Z,0.80
2019-02-17T15:38:36.761Z,1.62
2019-02-17T15:41:07.611Z,1.50
2019-02-17T15:43:38.236Z,1.02
2019-02-17T15:46:09.181Z,2.10
2019-02-17T15:48:39.430Z,0.93
2019-02-17T15:51:09.644Z,1.00
2019-02-17T15:53:39.989Z,1.75
2019-02-17T15:56:10.303Z,0.95
2019-02-17T15:58:40.827Z,1.20
2019-02-17T16:01:11.397Z,1.20
2019-02-17T16:03:42.018Z,1.07
2019-02-17T16:06:12.322Z,0.72
2019-02-17T16:08:42.588Z,1.70
2019-02-17T16:11:12.683Z,0.62
2019-02-17T16:13:42.903Z,1.20
2019-02-17T16:16:13.868Z,1.07
2019-02-17T16:18:44.344Z,0.40
2019-02-17T16:21:14.636Z,0.85
2019-02-17T16:23:44.870Z,1.42
2019-02-17T16:26:15.324Z,0.93
2019-02-17T16:28:45.657Z,1.12
2019-02-17T16:31:15.932Z,1.90
2019-02-17T16:33:46.019Z,0.98
2019-02-17T16:36:16.356Z,1.40
2019-02-17T16:38:47.135Z,1.00
2019-02-17T16:41:17.637Z,1.22
2019-02-17T16:43:48.077Z,1.80
2019-02-17T16:46:18.747Z,1.37
2019-02-17T16:48:51.766Z,1.47
2019-02-17T16:51:22.274Z,1.15
2019-02-17T16:53:52.851Z,1.52
2019-02-17T16:56:24.047Z,2.50
2019-02-17T16:58:55.910Z,2.80
2019-02-17T17:01:26.849Z,1.60
2019-02-17T17:03:57.249Z,2.05
2019-02-17T17:06:27.833Z,2.45
2019-02-17T17:08:58.442Z,1.75
2019-02-17T17:11:29.534Z,2.10
2019-02-17T17:14:00.373Z,2.08
2019-02-17T17:16:30.961Z,2.10
2019-02-17T17:19:01.898Z,2.00
2019-02-17T17:21:32.266Z,1.85
2019-02-17T17:24:02.626Z,2.08
2019-02-17T17:26:33.537Z,1.87
2019-02-17T17:29:04.516Z,1.98
2019-02-17T17:31:35.372Z,1.40
2019-02-17T17:34:05.991Z,1.20
2019-02-17T17:36:37.175Z,1.15
2019-02-17T17:39:08.496Z,1.22
2019-02-17T17:41:39.191Z,1.07
2019-02-17T17:44:10.210Z,1.77
2019-02-17T17:46:41.642Z,0.90
2019-02-17T17:49:19.081Z,1.82
2019-02-17T17:51:45.626Z,1.10
2019-02-17T17:54:16.624Z,1.00
2019-02-17T17:56:47.671Z,1.77
2019-02-17T17:59:18.571Z,1.37
2019-02-17T18:01:55.704Z,1.45
2019-02-17T18:04:26.943Z,1.90
2019-02-17T18:06:57.960Z,1.10
2019-02-17T18:09:29.342Z,1.85
2019-02-17T18:12:00.289Z,2.60
2019-02-17T18:14:32.634Z,2.02
2019-02-17T18:17:03.422Z,1.85
2019-02-17T18:19:34.233Z,1.20
2019-02-17T18:22:04.877Z,2.20
2019-02-17T18:24:36.048Z,2.12
2019-02-17T18:27:07.665Z,1.40
2019-02-17T18:29:38.928Z,1.98
2019-02-17T18:32:11.108Z,2.52
2019-02-17T18:34:42.018Z,1.70
2019-02-17T18:37:12.850Z,1.75
2019-02-17T18:39:46.232Z,1.37
2019-02-17T18:42:16.895Z,1.45
2019-02-17T18:44:47.999Z,1.62
2019-02-17T18:47:19.898Z,1.67
2019-02-17T18:49:51.599Z,2.85
2019-02-17T18:52:22.406Z,2.08
2019-02-17T18:54:54.002Z,1.67
2019-02-17T18:57:25.033Z,1.87
2019-02-17T18:59:56.417Z,1.02
2019-02-17T19:02:27.240Z,1.00
2019-02-17T19:04:58.180Z,2.30
2019-02-17T19:07:29.533Z,1.65
2019-02-17T19:10:00.653Z,1.40
2019-02-17T19:12:31.904Z,0.90
2019-02-17T19:15:02.835Z,1.17
2019-02-17T19:17:33.917Z,1.37
2019-02-17T19:20:05.971Z,1.20
2019-02-17T19:22:36.540Z,1.00
2019-02-17T19:25:08.454Z,0.65
2019-02-17T19:27:39.145Z,0.80
2019-02-17T19:30:11.103Z,1.10
2019-02-17T19:32:42.089Z,1.27
2019-02-17T19:35:13.261Z,1.30
2019-02-17T19:37:44.438Z,1.27
2019-02-17T19:40:15.151Z,1.02
2019-02-17T19:42:45.970Z,1.45
2019-02-17T19:45:16.801Z,0.88
2019-02-17T19:47:47.357Z,1.17
2019-02-17T19:50:17.914Z,0.72
2019-02-17T19:52:48.526Z,0.80
2019-02-17T19:55:19.224Z,0.72
2019-02-17T19:57:50.184Z,1.22
2019-02-17T20:00:20.814Z,1.20
2019-02-17T20:03:06.945Z,1.05
2019-02-17T20:05:40.787Z,1.05
2019-02-17T20:08:12.465Z,0.80
2019-02-17T20:10:45.775Z,1.17
2019-02-17T20:13:19.248Z,1.10
2019-02-17T20:15:51.453Z,0.78
2019-02-17T20:18:27.811Z,1.00
2019-02-17T20:21:01.487Z,0.80
2019-02-17T20:23:32.505Z,1.00
2019-02-17T20:26:03.124Z,0.70
2019-02-17T20:28:43.086Z,0.57
2019-02-17T20:31:06.961Z,1.35
2019-02-17T20:33:37.677Z,1.15
2019-02-17T20:36:08.115Z,0.60
2019-02-17T20:38:38.880Z,0.90
2019-02-17T20:41:09.470Z,0.42
2019-02-17T20:43:40.539Z,0.88
2019-02-17T20:46:11.281Z,0.78
2019-02-17T20:48:41.933Z,0.68
2019-02-17T20:51:12.355Z,0.70
2019-02-17T20:53:42.979Z,1.25
2019-02-17T20:56:13.345Z,0.57
2019-02-17T20:58:43.823Z,1.05
2019-02-17T21:01:14.547Z,0.93
2019-02-17T21:03:45.041Z,0.53
2019-02-17T21:06:16.042Z,0.57
2019-02-17T21:08:46.234Z,0.70
2019-02-17T21:11:16.970Z,0.62
2019-02-17T21:13:47.826Z,0.37
2019-02-17T21:16:18.246Z,0.90
2019-02-17T21:18:48.514Z,1.30
2019-02-17T21:21:18.971Z,1.12
2019-02-17T21:23:49.505Z,0.45
2019-02-17T21:26:26.001Z,0.68
2019-02-17T21:28:52.064Z,0.70
2019-02-17T21:31:22.233Z,0.90
2019-02-17T21:33:52.790Z,0.47
2019-02-17T21:36:23.605Z,1.10
2019-02-17T21:38:54.048Z,0.62
2019-02-17T21:41:25.043Z,0.65
2019-02-17T21:43:55.240Z,0.70
2019-02-17T21:46:25.585Z,0.80
2019-02-17T21:48:55.979Z,0.93
2019-02-17T21:51:26.243Z,0.82
2019-02-17T21:53:56.855Z,1.25
2019-02-17T21:56:27.085Z,0.88
2019-02-17T21:58:57.378Z,0.53
2019-02-17T22:01:27.820Z,1.00
2019-02-17T22:03:58.084Z,0.68
2019-02-17T22:06:33.392Z,0.85
2019-02-17T22:09:00.989Z,0.93
2019-02-17T22:11:31.419Z,1.10
2019-02-17T22:14:01.797Z,0.90
2019-02-17T22:16:31.906Z,0.70
2019-02-17T22:19:02.034Z,0.98
2019-02-17T22:21:35.485Z,0.72
2019-02-17T22:24:06.132Z,0.60
2019-02-17T22:26:36.552Z,0.95
2019-02-17T22:29:06.971Z,0.80
2019-02-17T22:31:37.425Z,1.72
2019-02-17T22:34:07.918Z,1.45
2019-02-17T22:36:43.661Z,0.55
2019-02-17T22:39:10.444Z,0.78
2019-02-17T22:41:40.666Z,0.80
2019-02-17T22:44:11.242Z,0.90
2019-02-17T22:46:42.025Z,0.70
2019-02-17T22:49:15.474Z,0.82
2019-02-17T22:51:46.424Z,0.85
2019-02-17T22:54:17.097Z,0.93
2019-02-17T22:56:47.327Z,0.80
2019-02-17T22:59:18.015Z,1.12
2019-02-17T23:01:48.711Z,1.07
2019-02-17T23:04:19.668Z,0.98
2019-02-17T23:06:54.181Z,1.00
2019-02-17T23:09:22.572Z,1.02
2019-02-17T23:11:53.111Z,0.93
2019-02-17T23:14:23.768Z,1.10
2019-02-17T23:16:54.607Z,0.80
2019-02-17T23:19:25.082Z,0.95
2019-02-17T23:21:55.425Z,0.80
2019-02-17T23:24:25.986Z,0.95
2019-02-17T23:26:56.399Z,1.02
2019-02-17T23:29:26.903Z,1.10
2019-02-17T23:31:57.387Z,0.82
2019-02-17T23:34:27.821Z,0.60
2019-02-17T23:37:03.958Z,0.75
2019-02-17T23:39:30.426Z,0.53
2019-02-17T23:42:00.582Z,0.85
2019-02-17T23:44:30.974Z,0.82
2019-02-17T23:47:01.169Z,0.57
2019-02-17T23:49:31.422Z,0.90
2019-02-17T23:52:01.703Z,0.62
2019-02-17T23:54:31.741Z,1.10
2019-02-17T23:57:01.944Z,0.98
2019-02-17T23:59:32.200Z,0.70
